createdAt,value
2018-01-01T00:00:27.362Z,46.40
2018-01-01T00:02:54.856Z,46.43
2018-01-01T00:05:22.350Z,48.20
2018-01-01T00:07:49.848Z,48.60
2018-01-01T00:10:17.323Z,39.90
2018-01-01T00:12:44.798Z,42.33
2018-01-01T00:15:13.060Z,41.80
2018-01-01T00:17:40.542Z,39.80
2018-01-01T00:20:08.798Z,41.77
2018-01-01T00:22:36.286Z,39.27
2018-01-01T00:25:03.770Z,38.80
2018-01-01T00:27:31.255Z,35.70
2018-01-01T00:29:58.771Z,35.10
2018-01-01T00:32:26.251Z,34.80
2018-01-01T00:34:53.725Z,37.60
2018-01-01T00:37:21.227Z,34.57
2018-01-01T00:39:49.519Z,37.10
2018-01-01T00:42:17.007Z,38.40
2018-01-01T00:44:44.513Z,41.13
2018-01-01T00:47:12.759Z,45.20
2018-01-01T00:49:40.245Z,52.37
2018-01-01T00:52:08.513Z,51.30
2018-01-01T00:54:36.083Z,52.43
2018-01-01T00:57:04.327Z,53.47
2018-01-01T00:59:31.850Z,49.87
2018-01-01T01:01:59.342Z,54.80
2018-01-01T01:04:26.808Z,53.47
2018-01-01T01:06:54.300Z,55.33
2018-01-01T01:09:22.542Z,58.17
2018-01-01T01:11:50.022Z,598.13
2018-01-01T01:14:17.588Z,235.87
2018-01-01T01:16:45.834Z,70.37
2018-01-01T01:19:13.316Z,58.77
2018-01-01T01:21:40.810Z,56.83
2018-01-01T01:24:08.289Z,55.30
2018-01-01T01:26:35.810Z,54.07
2018-01-01T01:29:03.317Z,57.57
2018-01-01T01:31:30.811Z,51.10
2018-01-01T01:33:59.060Z,49.27
2018-01-01T01:36:26.554Z,53.73
2018-01-01T01:38:54.802Z,53.73
2018-01-01T01:41:22.395Z,51.37
2018-01-01T01:43:50.185Z,59.30
2018-01-01T01:46:17.665Z,69.80
2018-01-01T01:48:46.925Z,63.70
2018-01-01T01:51:14.423Z,71.93
2018-01-01T01:53:41.897Z,68.87
2018-01-01T01:56:09.379Z,71.47
2018-01-01T01:58:37.652Z,64.17
2018-01-01T02:01:05.129Z,65.03
2018-01-01T02:03:33.383Z,60.60
2018-01-01T02:06:00.874Z,57.97
2018-01-01T02:08:28.354Z,59.23
2018-01-01T02:10:55.830Z,63.40
2018-01-01T02:13:23.322Z,64.97
2018-01-01T02:15:51.578Z,65.43
2018-01-01T02:18:19.054Z,71.03
2018-01-01T02:20:46.642Z,72.23
2018-01-01T02:23:14.136Z,72.97
2018-01-01T02:25:41.610Z,76.93
2018-01-01T02:28:09.099Z,75.40
2018-01-01T02:30:37.337Z,74.10
2018-01-01T02:33:04.810Z,72.87
2018-01-01T02:35:32.302Z,75.07
2018-01-01T02:37:59.782Z,76.00
2018-01-01T02:40:27.255Z,73.73
2018-01-01T02:42:54.758Z,72.73
2018-01-01T02:45:23.044Z,69.27
2018-01-01T02:47:51.290Z,70.43
2018-01-01T02:50:18.869Z,67.40
2018-01-01T02:52:47.613Z,74.37
2018-01-01T02:55:15.100Z,73.30
2018-01-01T02:57:42.596Z,69.43
2018-01-01T03:00:10.095Z,71.23
2018-01-01T03:02:37.585Z,68.23
2018-01-01T03:05:05.079Z,65.23
2018-01-01T03:07:32.561Z,64.33
2018-01-01T03:10:00.049Z,64.60
2018-01-01T03:12:27.547Z,61.47
2018-01-01T03:14:55.060Z,61.17
2018-01-01T03:17:22.543Z,61.90
2018-01-01T03:19:50.807Z,62.53
2018-01-01T03:22:18.284Z,60.27
2018-01-01T03:24:46.535Z,64.43
2018-01-01T03:27:14.025Z,60.73
2018-01-01T03:29:42.266Z,59.10
2018-01-01T03:32:09.750Z,61.80
2018-01-01T03:34:38.060Z,60.17
2018-01-01T03:37:05.542Z,58.67
2018-01-01T03:39:33.042Z,59.67
2018-01-01T03:42:01.314Z,59.87
2018-01-01T03:44:29.550Z,58.30
2018-01-01T03:46:57.030Z,55.50
2018-01-01T03:49:24.514Z,53.13
2018-01-01T03:51:52.785Z,52.70
2018-01-01T03:54:21.030Z,53.10
2018-01-01T03:56:48.513Z,50.10
2018-01-01T03:59:16.074Z,51.73
2018-01-01T04:01:43.561Z,46.60
2018-01-01T04:04:11.200Z,50.43
2018-01-01T04:06:39.446Z,48.20
2018-01-01T04:09:06.919Z,49.60
2018-01-01T04:11:34.489Z,50.13
2018-01-01T04:14:02.055Z,46.73
2018-01-01T04:16:30.302Z,45.37
2018-01-01T04:18:57.895Z,45.00
2018-01-01T04:21:26.143Z,44.93
2018-01-01T04:23:54.386Z,42.90
2018-01-01T04:26:21.883Z,43.73
2018-01-01T04:28:50.145Z,44.57
2018-01-01T04:31:17.621Z,44.30
2018-01-01T04:33:45.137Z,43.57
2018-01-01T04:36:12.615Z,43.33
2018-01-01T04:38:40.095Z,42.10
2018-01-01T04:41:07.671Z,41.13
2018-01-01T04:43:35.942Z,44.13
2018-01-01T04:46:03.418Z,41.00
2018-01-01T04:48:31.670Z,39.50
2018-01-01T04:50:59.150Z,39.67
2018-01-01T04:53:27.394Z,41.07
2018-01-01T04:55:54.938Z,40.57
2018-01-01T04:58:22.426Z,41.87
2018-01-01T05:00:49.993Z,42.27
2018-01-01T05:03:18.246Z,39.80
2018-01-01T05:05:46.493Z,38.40
2018-01-01T05:08:13.975Z,40.13
2018-01-01T05:10:41.461Z,40.23
2018-01-01T05:13:09.017Z,39.03
2018-01-01T05:15:37.270Z,39.30
2018-01-01T05:18:04.757Z,39.60
2018-01-01T05:20:33.029Z,43.00
2018-01-01T05:23:01.275Z,39.73
2018-01-01T05:25:28.757Z,38.00
2018-01-01T05:27:56.338Z,36.43
2018-01-01T05:30:24.569Z,38.37
2018-01-01T05:32:52.061Z,42.00
2018-01-01T05:35:20.307Z,40.67
2018-01-01T05:37:47.787Z,41.20
2018-01-01T05:40:15.354Z,41.80
2018-01-01T05:42:43.596Z,37.87
2018-01-01T05:45:11.074Z,39.00
2018-01-01T05:47:38.564Z,37.93
2018-01-01T05:50:06.798Z,36.20
2018-01-01T05:52:34.282Z,36.70
2018-01-01T05:55:02.562Z,37.03
2018-01-01T05:57:30.836Z,36.07
2018-01-01T05:59:59.085Z,34.13
2018-01-01T06:02:26.570Z,37.90
2018-01-01T06:04:54.845Z,37.83
2018-01-01T06:07:23.092Z,35.60
2018-01-01T06:09:50.577Z,35.73
2018-01-01T06:12:18.825Z,35.37
2018-01-01T06:14:46.303Z,34.60
2018-01-01T06:17:13.981Z,36.77
2018-01-01T06:19:42.227Z,46.60
2018-01-01T06:22:09.811Z,40.00
2018-01-01T06:24:38.143Z,39.20
2018-01-01T06:27:05.593Z,36.63
2018-01-01T06:29:33.070Z,37.00
2018-01-01T06:32:00.559Z,34.27
2018-01-01T06:34:28.034Z,34.43
2018-01-01T06:36:56.279Z,31.10
2018-01-01T06:39:23.766Z,35.10
2018-01-01T06:41:52.014Z,35.00
2018-01-01T06:44:19.489Z,30.40
2018-01-01T06:46:47.750Z,31.63
2018-01-01T06:49:15.326Z,32.43
2018-01-01T06:51:43.566Z,31.43
2018-01-01T06:54:11.056Z,32.40
2018-01-01T06:56:38.532Z,34.17
2018-01-01T06:59:06.770Z,43.73
2018-01-01T07:01:35.056Z,39.00
2018-01-01T07:04:02.550Z,34.03
2018-01-01T07:06:30.032Z,32.33
2018-01-01T07:08:57.517Z,34.97
2018-01-01T07:11:24.993Z,37.73
2018-01-01T07:13:52.561Z,33.77
2018-01-01T07:16:21.747Z,49.10
2018-01-01T07:18:49.213Z,40.40
2018-01-01T07:21:16.693Z,38.03
2018-01-01T07:23:44.237Z,35.27
2018-01-01T07:26:12.558Z,34.10
2018-01-01T07:28:40.031Z,33.30
2018-01-01T07:31:07.523Z,33.17
2018-01-01T07:33:34.999Z,36.47
2018-01-01T07:36:03.263Z,36.17
2018-01-01T07:38:31.542Z,33.67
2018-01-01T07:40:59.783Z,33.83
2018-01-01T07:43:27.263Z,32.40
2018-01-01T07:45:54.746Z,34.57
2018-01-01T07:48:23.010Z,34.03
2018-01-01T07:50:51.250Z,35.63
2018-01-01T07:53:18.734Z,33.00
2018-01-01T07:55:46.212Z,37.30
2018-01-01T07:58:14.463Z,37.40
2018-01-01T08:00:41.942Z,26.73
2018-01-01T08:03:10.222Z,15.07
2018-01-01T08:05:38.526Z,9.20
2018-01-01T08:08:06.006Z,5.93
2018-01-01T08:10:33.474Z,3.93
2018-01-01T08:13:00.961Z,2.40
2018-01-01T08:15:29.241Z,1.90
2018-01-01T08:17:57.477Z,1.50
2018-01-01T08:20:24.945Z,1.20
2018-01-01T08:22:52.429Z,1.17
2018-01-01T08:25:20.668Z,1.00
2018-01-01T08:27:48.165Z,1.43
2018-01-01T08:30:16.411Z,0.70
2018-01-01T08:32:43.901Z,0.90
2018-01-01T08:35:12.183Z,0.93
2018-01-01T08:37:40.459Z,1.10
2018-01-01T08:40:08.692Z,0.97
2018-01-01T08:42:36.163Z,0.80
2018-01-01T08:45:03.744Z,1.07
2018-01-01T08:47:31.314Z,0.90
2018-01-01T08:49:59.578Z,1.10
2018-01-01T08:52:27.826Z,0.50
2018-01-01T08:54:56.116Z,0.70
2018-01-01T08:57:23.702Z,1.17
2018-01-01T08:59:51.958Z,0.70
2018-01-01T09:02:19.534Z,0.90
2018-01-01T09:04:47.001Z,0.57
2018-01-01T09:07:15.253Z,0.70
2018-01-01T09:09:42.822Z,0.90
2018-01-01T09:12:10.289Z,0.83
2018-01-01T09:14:38.544Z,0.70
2018-01-01T09:17:06.022Z,0.90
2018-01-01T09:19:34.269Z,1.07
2018-01-01T09:22:01.745Z,0.80
2018-01-01T09:24:29.320Z,0.80
2018-01-01T09:26:57.589Z,2.03
2018-01-01T09:29:25.150Z,0.67
2018-01-01T09:31:53.394Z,0.53
2018-01-01T09:34:20.870Z,0.80
2018-01-01T09:36:49.886Z,0.70
2018-01-01T09:39:18.126Z,0.50
2018-01-01T09:41:45.614Z,0.60
2018-01-01T09:44:13.884Z,0.50
2018-01-01T09:46:41.350Z,0.60
2018-01-01T09:49:09.622Z,1.00
2018-01-01T09:51:37.102Z,0.70
2018-01-01T09:54:04.574Z,1.10
2018-01-01T09:56:32.129Z,0.90
2018-01-01T09:58:59.740Z,0.80
2018-01-01T10:01:27.313Z,0.70
2018-01-01T10:03:54.929Z,0.63
2018-01-01T10:06:22.440Z,0.80
2018-01-01T10:08:50.677Z,0.93
2018-01-01T10:11:18.149Z,0.90
2018-01-01T10:13:45.732Z,1.00
2018-01-01T10:16:13.299Z,0.63
2018-01-01T10:18:40.859Z,0.60
2018-01-01T10:21:09.115Z,0.93
2018-01-01T10:23:37.405Z,0.87
2018-01-01T10:26:05.643Z,0.90
2018-01-01T10:28:33.145Z,0.80
2018-01-01T10:31:01.390Z,1.43
2018-01-01T10:33:28.902Z,1.17
2018-01-01T10:35:56.394Z,1.00
2018-01-01T10:38:23.898Z,0.90
2018-01-01T10:40:52.134Z,0.50
2018-01-01T10:43:19.623Z,1.00
2018-01-01T10:45:47.866Z,0.70
2018-01-01T10:48:15.334Z,0.90
2018-01-01T10:50:42.918Z,1.07
2018-01-01T10:53:10.389Z,0.80
2018-01-01T10:55:37.878Z,0.50
2018-01-01T10:58:05.365Z,1.00
2018-01-01T11:00:32.846Z,0.80
2018-01-01T11:03:00.321Z,0.70
2018-01-01T11:05:28.565Z,0.60
2018-01-01T11:07:56.167Z,1.03
2018-01-01T11:10:24.403Z,0.87
2018-01-01T11:12:51.891Z,0.73
2018-01-01T11:15:20.131Z,1.07
2018-01-01T11:17:47.620Z,0.87
2018-01-01T11:20:15.966Z,0.70
2018-01-01T11:22:43.443Z,1.10
2018-01-01T11:25:10.918Z,0.60
2018-01-01T11:27:39.164Z,0.63
2018-01-01T11:30:06.634Z,0.67
2018-01-01T11:32:34.219Z,0.90
2018-01-01T11:35:02.472Z,1.00
2018-01-01T11:37:31.488Z,0.73
2018-01-01T11:39:59.729Z,0.70
2018-01-01T11:42:27.208Z,0.77
2018-01-01T11:44:54.688Z,1.03
2018-01-01T11:47:22.156Z,0.53
2018-01-01T11:49:49.656Z,0.60
2018-01-01T11:52:17.174Z,1.07
2018-01-01T11:54:44.658Z,0.60
2018-01-01T11:57:12.154Z,0.90
2018-01-01T11:59:39.625Z,0.60
2018-01-01T12:02:07.865Z,0.60
2018-01-01T12:04:35.351Z,0.70
2018-01-01T12:07:03.589Z,0.70
2018-01-01T12:09:31.067Z,0.70
2018-01-01T12:11:58.597Z,0.70
2018-01-01T12:14:26.103Z,0.40
2018-01-01T12:16:54.351Z,1.10
2018-01-01T12:19:21.837Z,0.50
2018-01-01T12:21:50.122Z,0.87
2018-01-01T12:24:18.378Z,0.77
2018-01-01T12:26:45.878Z,0.60
2018-01-01T12:29:13.361Z,0.80
2018-01-01T12:31:40.858Z,0.90
2018-01-01T12:34:08.362Z,1.20
2018-01-01T12:36:35.846Z,0.60
2018-01-01T12:39:03.330Z,0.70
2018-01-01T12:41:31.622Z,1.00
2018-01-01T12:43:59.894Z,0.67
2018-01-01T12:46:28.137Z,0.60
2018-01-01T12:48:55.874Z,0.63
2018-01-01T12:51:23.433Z,0.60
2018-01-01T12:53:50.911Z,0.50
2018-01-01T12:56:18.393Z,0.60
2018-01-01T12:58:45.875Z,0.70
2018-01-01T13:01:14.113Z,0.67
2018-01-01T13:03:41.601Z,0.60
2018-01-01T13:06:09.851Z,0.90
2018-01-01T13:08:38.949Z,0.60
2018-01-01T13:11:06.529Z,0.67
2018-01-01T13:13:34.021Z,0.60
2018-01-01T13:16:01.497Z,0.93
2018-01-01T13:18:28.981Z,0.97
2018-01-01T13:20:56.458Z,0.87
2018-01-01T13:23:23.937Z,0.67
2018-01-01T13:25:52.205Z,1.00
2018-01-01T13:28:20.473Z,0.90
2018-01-01T13:30:47.951Z,0.67
2018-01-01T13:33:16.219Z,0.80
2018-01-01T13:35:44.458Z,1.70
2018-01-01T13:38:11.935Z,1.00
2018-01-01T13:40:39.442Z,1.23
2018-01-01T13:43:06.922Z,1.37
2018-01-01T13:45:34.390Z,1.17
2018-01-01T13:48:01.982Z,1.83
2018-01-01T13:50:30.498Z,2.10
2018-01-01T13:52:58.022Z,2.63
2018-01-01T13:55:26.290Z,2.40
2018-01-01T13:57:53.854Z,1.13
2018-01-01T14:00:22.122Z,1.40
2018-01-01T14:02:49.612Z,1.60
2018-01-01T14:05:17.100Z,1.30
2018-01-01T14:07:44.570Z,1.00
2018-01-01T14:10:12.063Z,2.00
2018-01-01T14:12:39.541Z,1.50
2018-01-01T14:15:07.024Z,1.27
2018-01-01T14:17:34.511Z,1.17
2018-01-01T14:20:02.015Z,1.30
2018-01-01T14:22:29.526Z,1.53
2018-01-01T14:24:57.017Z,1.17
2018-01-01T14:27:25.257Z,1.50
2018-01-01T14:29:52.745Z,1.40
2018-01-01T14:32:20.313Z,0.80
2018-01-01T14:34:48.565Z,1.10
2018-01-01T14:37:16.055Z,1.53
2018-01-01T14:39:44.338Z,1.53
2018-01-01T14:42:13.219Z,1.70
2018-01-01T14:44:41.543Z,1.40
2018-01-01T14:47:09.035Z,2.50
2018-01-01T14:49:36.532Z,2.13
2018-01-01T14:52:05.606Z,2.57
2018-01-01T14:54:33.908Z,3.30
2018-01-01T14:57:02.295Z,2.60
2018-01-01T14:59:29.820Z,4.93
2018-01-01T15:01:58.074Z,5.33
2018-01-01T15:04:25.550Z,3.63
2018-01-01T15:06:53.024Z,2.80
2018-01-01T15:09:21.278Z,1.43
2018-01-01T15:11:48.842Z,1.70
2018-01-01T15:14:17.079Z,2.30
2018-01-01T15:16:44.589Z,2.17
2018-01-01T15:19:12.829Z,1.67
2018-01-01T15:21:40.302Z,2.10
2018-01-01T15:24:07.777Z,1.50
2018-01-01T15:26:36.014Z,1.77
2018-01-01T15:29:03.489Z,1.93
2018-01-01T15:31:30.977Z,1.80
2018-01-01T15:33:59.247Z,2.90
2018-01-01T15:36:27.479Z,3.10
2018-01-01T15:38:55.067Z,5.90
2018-01-01T15:41:22.959Z,2.97
2018-01-01T15:43:51.191Z,3.83
2018-01-01T15:46:18.783Z,7.13
2018-01-01T15:48:47.059Z,3.83
2018-01-01T15:51:15.303Z,3.03
2018-01-01T15:53:42.788Z,3.10
2018-01-01T15:56:11.075Z,3.10
2018-01-01T15:58:39.314Z,3.50
2018-01-01T16:01:06.814Z,2.33
2018-01-01T16:03:35.080Z,2.80
2018-01-01T16:06:03.328Z,14.73
2018-01-01T16:08:30.818Z,5.57
2018-01-01T16:10:59.091Z,17.97
2018-01-01T16:13:26.558Z,16.20
2018-01-01T16:15:54.810Z,14.90
2018-01-01T16:18:22.320Z,11.57
2018-01-01T16:20:49.797Z,16.00
2018-01-01T16:23:17.290Z,8.80
2018-01-01T16:25:44.768Z,6.33
2018-01-01T16:28:13.034Z,8.90
2018-01-01T16:30:41.473Z,7.90
2018-01-01T16:33:09.093Z,7.70
2018-01-01T16:35:36.579Z,10.53
2018-01-01T16:38:04.066Z,11.33
2018-01-01T16:40:31.545Z,13.60
2018-01-01T16:42:59.051Z,13.97
2018-01-01T16:45:26.545Z,15.53
2018-01-01T16:47:54.027Z,15.57
2018-01-01T16:50:22.271Z,16.47
2018-01-01T16:52:49.767Z,13.90
2018-01-01T16:55:18.011Z,13.20
2018-01-01T16:57:45.491Z,12.10
2018-01-01T17:00:12.976Z,18.20
2018-01-01T17:02:40.462Z,22.33
2018-01-01T17:05:07.942Z,22.73
2018-01-01T17:07:35.438Z,15.80
2018-01-01T17:10:03.702Z,12.30
2018-01-01T17:12:31.954Z,15.27
2018-01-01T17:14:59.446Z,11.83
2018-01-01T17:17:27.685Z,9.60
2018-01-01T17:19:55.154Z,7.47
2018-01-01T17:22:22.641Z,6.70
2018-01-01T17:24:50.904Z,9.40
2018-01-01T17:27:19.188Z,9.50
2018-01-01T17:29:47.450Z,14.60
2018-01-01T17:32:14.923Z,8.73
2018-01-01T17:34:43.156Z,8.63
2018-01-01T17:37:10.919Z,8.00
2018-01-01T17:39:38.416Z,9.10
2018-01-01T17:42:06.682Z,11.50
2018-01-01T17:44:34.168Z,10.83
2018-01-01T17:47:01.650Z,10.17
2018-01-01T17:49:29.143Z,8.90
2018-01-01T17:51:56.632Z,13.33
2018-01-01T17:54:24.879Z,13.77
2018-01-01T17:56:53.127Z,14.27
2018-01-01T17:59:20.631Z,13.17
2018-01-01T18:01:48.878Z,10.90
2018-01-01T18:04:16.359Z,8.27
2018-01-01T18:06:43.858Z,17.00
2018-01-01T18:09:11.338Z,10.10
2018-01-01T18:11:38.824Z,11.17
2018-01-01T18:14:06.306Z,21.57
2018-01-01T18:16:34.558Z,14.67
2018-01-01T18:19:02.044Z,10.83
2018-01-01T18:21:30.297Z,9.60
2018-01-01T18:23:57.774Z,10.20
2018-01-01T18:26:26.026Z,6.47
2018-01-01T18:28:53.510Z,7.53
2018-01-01T18:31:21.767Z,6.27
2018-01-01T18:33:49.251Z,8.10
2018-01-01T18:36:17.489Z,6.93
2018-01-01T18:38:44.995Z,6.90
2018-01-01T18:41:12.621Z,7.13
2018-01-01T18:43:40.136Z,14.10
2018-01-01T18:46:07.619Z,10.13
2018-01-01T18:48:35.111Z,8.00
2018-01-01T18:51:03.365Z,8.87
2018-01-01T18:53:31.075Z,10.97
2018-01-01T18:55:58.629Z,13.97
2018-01-01T18:58:26.149Z,12.77
2018-01-01T19:00:53.634Z,8.57
2018-01-01T19:03:21.118Z,7.53
2018-01-01T19:05:48.640Z,5.73
2018-01-01T19:08:16.888Z,7.20
2018-01-01T19:10:44.358Z,6.10
2018-01-01T19:13:12.737Z,8.10
2018-01-01T19:15:40.976Z,7.30
2018-01-01T19:18:08.512Z,5.30
2018-01-01T19:20:36.370Z,6.47
2018-01-01T19:23:04.625Z,8.97
2018-01-01T19:25:32.110Z,6.13
2018-01-01T19:27:59.607Z,5.77
2018-01-01T19:30:27.081Z,7.30
2018-01-01T19:32:56.083Z,6.70
2018-01-01T19:35:23.667Z,6.20
2018-01-01T19:37:52.023Z,7.13
2018-01-01T19:40:20.319Z,6.00
2018-01-01T19:42:48.585Z,5.37
2018-01-01T19:45:16.259Z,6.00
2018-01-01T19:47:44.507Z,8.60
2018-01-01T19:50:11.991Z,6.17
2018-01-01T19:52:40.237Z,4.80
2018-01-01T19:55:07.722Z,5.60
2018-01-01T19:57:35.978Z,5.23
2018-01-01T20:00:03.489Z,5.17
2018-01-01T20:02:31.706Z,4.93
2018-01-01T20:04:59.204Z,15.50
2018-01-01T20:07:27.458Z,7.63
2018-01-01T20:09:55.044Z,5.10
2018-01-01T20:12:23.426Z,4.30
2018-01-01T20:14:50.984Z,5.40
2018-01-01T20:17:18.938Z,5.27
2018-01-01T20:19:47.204Z,5.40
2018-01-01T20:22:15.030Z,6.30
2018-01-01T20:24:42.538Z,5.77
2018-01-01T20:27:10.815Z,6.80
2018-01-01T20:29:39.093Z,5.27
2018-01-01T20:32:07.331Z,5.17
2018-01-01T20:34:34.913Z,6.47
2018-01-01T20:37:02.609Z,4.50
2018-01-01T20:39:30.145Z,4.70
2018-01-01T20:41:58.408Z,4.50
2018-01-01T20:44:25.887Z,3.73
2018-01-01T20:46:54.126Z,4.67
2018-01-01T20:49:21.641Z,4.43
2018-01-01T20:51:49.123Z,4.67
2018-01-01T20:54:16.611Z,6.40
2018-01-01T20:56:44.111Z,12.30
2018-01-01T20:59:12.387Z,6.17
2018-01-01T21:01:40.636Z,4.50
2018-01-01T21:04:08.138Z,4.20
2018-01-01T21:06:35.626Z,12.60
2018-01-01T21:09:03.336Z,8.20
2018-01-01T21:11:31.589Z,3.53
2018-01-01T21:13:59.072Z,13.90
2018-01-01T21:16:27.354Z,10.63
2018-01-01T21:18:55.610Z,12.30
2018-01-01T21:21:23.986Z,8.77
2018-01-01T21:23:51.498Z,10.10
2018-01-01T21:26:19.764Z,35.00
2018-01-01T21:28:47.289Z,5.60
2018-01-01T21:31:15.539Z,5.90
2018-01-01T21:33:43.042Z,3.80
2018-01-01T21:36:10.517Z,6.10
2018-01-01T21:38:38.022Z,6.53
2018-01-01T21:41:06.269Z,6.53
2018-01-01T21:43:33.751Z,6.03
2018-01-01T21:46:01.473Z,5.67
2018-01-01T21:48:28.993Z,4.93
2018-01-01T21:50:57.231Z,5.30
2018-01-01T21:53:24.707Z,5.60
2018-01-01T21:55:52.287Z,6.00
2018-01-01T21:58:20.525Z,6.20
2018-01-01T22:00:48.007Z,15.67
2018-01-01T22:03:15.499Z,23.80
2018-01-01T22:05:43.739Z,8.10
2018-01-01T22:08:11.322Z,6.63
2018-01-01T22:10:39.566Z,4.90
2018-01-01T22:13:07.051Z,5.20
2018-01-01T22:15:35.347Z,4.77
2018-01-01T22:18:02.786Z,4.00
2018-01-01T22:20:31.042Z,14.30
2018-01-01T22:22:58.518Z,3.50
2018-01-01T22:25:26.088Z,4.00
2018-01-01T22:27:54.329Z,17.33
2018-01-01T22:30:22.575Z,18.10
2018-01-01T22:32:50.066Z,9.07
2018-01-01T22:35:17.538Z,9.73
2018-01-01T22:37:45.018Z,9.47
2018-01-01T22:40:13.289Z,11.10
2018-01-01T22:42:41.526Z,6.23
2018-01-01T22:45:08.994Z,6.10
2018-01-01T22:47:36.487Z,6.20
2018-01-01T22:50:04.722Z,4.30
2018-01-01T22:52:32.193Z,4.17
2018-01-01T22:55:00.447Z,3.90
2018-01-01T22:57:27.947Z,4.07
2018-01-01T22:59:56.187Z,4.57
2018-01-01T23:02:23.785Z,4.40
2018-01-01T23:04:52.018Z,5.13
2018-01-01T23:07:19.615Z,4.80
2018-01-01T23:09:47.093Z,5.57
2018-01-01T23:12:14.567Z,5.10
2018-01-01T23:14:42.041Z,4.80
2018-01-01T23:17:10.364Z,4.63
2018-01-01T23:19:38.598Z,4.60
2018-01-01T23:22:06.070Z,4.27
2018-01-01T23:24:33.562Z,4.53
2018-01-01T23:27:01.810Z,6.27
2018-01-01T23:29:29.311Z,20.70
2018-01-01T23:31:56.802Z,7.30
2018-01-01T23:34:24.282Z,6.50
2018-01-01T23:36:51.758Z,6.10
2018-01-01T23:39:19.244Z,5.13
2018-01-01T23:41:47.474Z,4.80
2018-01-01T23:44:14.954Z,4.37
2018-01-01T23:46:42.440Z,4.20
2018-01-01T23:49:09.920Z,4.60
2018-01-01T23:51:37.397Z,5.00
2018-01-01T23:54:04.927Z,4.93
2018-01-01T23:56:32.455Z,6.13
2018-01-01T23:59:00.731Z,24.73
